sensor_id;sensor_type;location;lat;lon;timestamp;P1;durP1;ratioP1;P2;durP2;ratioP2
12271;SDS011;6198;51.446;6.698;2023-06-22T00:00:41;13.13;;;10.30;;
12271;SDS011;6198;51.446;6.698;2023-06-22T00:03:07;12.93;;;10.37;;
12271;SDS011;6198;51.446;6.698;2023-06-22T00:05:33;13.82;;;12.27;;
12271;SDS011;6198;51.446;6.698;2023-06-22T00:08:02;12.43;;;11.10;;
12271;SDS011;6198;51.446;6.698;2023-06-22T00:10:28;13.17;;;11.20;;
12271;SDS011;6198;51.446;6.698;2023-06-22T00:12:54;12.43;;;10.00;;
12271;SDS011;6198;51.446;6.698;2023-06-22T00:15:20;11.60;;;10.40;;
12271;SDS011;6198;51.446;6.698;2023-06-22T00:17:45;14.17;;;10.80;;
12271;SDS011;6198;51.446;6.698;2023-06-22T00:20:11;14.40;;;10.80;;
12271;SDS011;6198;51.446;6.698;2023-06-22T00:22:39;16.27;;;10.73;;
12271;SDS011;6198;51.446;6.698;2023-06-22T00:25:06;14.27;;;11.00;;
12271;SDS011;6198;51.446;6.698;2023-06-22T00:27:32;11.47;;;10.00;;
12271;SDS011;6198;51.446;6.698;2023-06-22T00:29:58;12.43;;;11.13;;
12271;SDS011;6198;51.446;6.698;2023-06-22T00:32:24;13.53;;;11.50;;
12271;SDS011;6198;51.446;6.698;2023-06-22T00:34:50;15.17;;;11.00;;
12271;SDS011;6198;51.446;6.698;2023-06-22T00:37:16;12.57;;;11.27;;
12271;SDS011;6198;51.446;6.698;2023-06-22T00:39:44;13.53;;;10.97;;
12271;SDS011;6198;51.446;6.698;2023-06-22T00:42:10;16.03;;;12.07;;
12271;SDS011;6198;51.446;6.698;2023-06-22T00:44:36;12.83;;;11.53;;
12271;SDS011;6198;51.446;6.698;2023-06-22T00:47:02;13.63;;;11.37;;
12271;SDS011;6198;51.446;6.698;2023-06-22T00:49:29;12.60;;;11.10;;
12271;SDS011;6198;51.446;6.698;2023-06-22T00:51:55;14.10;;;11.00;;
12271;SDS011;6198;51.446;6.698;2023-06-22T00:54:21;13.13;;;11.53;;
12271;SDS011;6198;51.446;6.698;2023-06-22T00:56:55;16.57;;;12.53;;
12271;SDS011;6198;51.446;6.698;2023-06-22T00:59:25;14.10;;;12.43;;
12271;SDS011;6198;51.446;6.698;2023-06-22T01:01:52;15.83;;;11.43;;
12271;SDS011;6198;51.446;6.698;2023-06-22T01:04:17;15.57;;;11.87;;
12271;SDS011;6198;51.446;6.698;2023-06-22T01:09:40;13.27;;;11.63;;
12271;SDS011;6198;51.446;6.698;2023-06-22T01:12:10;16.73;;;11.43;;
12271;SDS011;6198;51.446;6.698;2023-06-22T01:17:03;13.90;;;11.60;;
12271;SDS011;6198;51.446;6.698;2023-06-22T01:19:43;12.33;;;11.00;;
12271;SDS011;6198;51.446;6.698;2023-06-22T01:22:13;13.20;;;11.70;;
12271;SDS011;6198;51.446;6.698;2023-06-22T01:29:42;14.93;;;12.97;;
12271;SDS011;6198;51.446;6.698;2023-06-22T01:32:09;16.00;;;12.57;;
12271;SDS011;6198;51.446;6.698;2023-06-22T01:34:36;14.07;;;12.30;;
12271;SDS011;6198;51.446;6.698;2023-06-22T01:37:05;14.40;;;12.87;;
12271;SDS011;6198;51.446;6.698;2023-06-22T01:39:31;15.53;;;12.57;;
12271;SDS011;6198;51.446;6.698;2023-06-22T01:41:57;16.97;;;12.77;;
12271;SDS011;6198;51.446;6.698;2023-06-22T01:44:24;16.37;;;12.57;;
12271;SDS011;6198;51.446;6.698;2023-06-22T01:46:51;14.43;;;12.70;;
12271;SDS011;6198;51.446;6.698;2023-06-22T01:49:17;15.07;;;13.03;;
12271;SDS011;6198;51.446;6.698;2023-06-22T01:51:43;15.27;;;13.63;;
12271;SDS011;6198;51.446;6.698;2023-06-22T01:54:09;16.23;;;13.83;;
12271;SDS011;6198;51.446;6.698;2023-06-22T01:56:35;15.77;;;14.10;;
12271;SDS011;6198;51.446;6.698;2023-06-22T01:59:15;15.17;;;12.87;;
12271;SDS011;6198;51.446;6.698;2023-06-22T02:01:44;16.13;;;14.23;;
12271;SDS011;6198;51.446;6.698;2023-06-22T02:04:13;17.03;;;14.67;;
12271;SDS011;6198;51.446;6.698;2023-06-22T02:06:41;15.30;;;13.73;;
12271;SDS011;6198;51.446;6.698;2023-06-22T02:09:09;19.90;;;15.20;;
12271;SDS011;6198;51.446;6.698;2023-06-22T02:11:37;20.50;;;15.63;;
12271;SDS011;6198;51.446;6.698;2023-06-22T02:14:06;19.20;;;15.10;;
12271;SDS011;6198;51.446;6.698;2023-06-22T02:16:32;17.57;;;15.03;;
12271;SDS011;6198;51.446;6.698;2023-06-22T02:18:59;17.63;;;15.37;;
12271;SDS011;6198;51.446;6.698;2023-06-22T02:21:28;16.53;;;14.40;;
12271;SDS011;6198;51.446;6.698;2023-06-22T02:23:54;17.83;;;15.93;;
12271;SDS011;6198;51.446;6.698;2023-06-22T02:26:20;17.87;;;14.67;;
12271;SDS011;6198;51.446;6.698;2023-06-22T02:28:46;19.07;;;15.00;;
12271;SDS011;6198;51.446;6.698;2023-06-22T02:31:12;17.03;;;15.30;;
12271;SDS011;6198;51.446;6.698;2023-06-22T02:33:38;18.47;;;15.93;;
12271;SDS011;6198;51.446;6.698;2023-06-22T02:36:04;20.13;;;16.33;;
12271;SDS011;6198;51.446;6.698;2023-06-22T02:38:34;19.60;;;17.20;;
12271;SDS011;6198;51.446;6.698;2023-06-22T02:41:01;17.50;;;15.80;;
12271;SDS011;6198;51.446;6.698;2023-06-22T02:43:27;19.87;;;15.90;;
12271;SDS011;6198;51.446;6.698;2023-06-22T02:45:53;18.57;;;16.10;;
12271;SDS011;6198;51.446;6.698;2023-06-22T02:48:19;18.77;;;16.77;;
12271;SDS011;6198;51.446;6.698;2023-06-22T02:50:45;18.73;;;16.63;;
12271;SDS011;6198;51.446;6.698;2023-06-22T02:53:11;18.30;;;16.10;;
12271;SDS011;6198;51.446;6.698;2023-06-22T02:55:37;20.00;;;17.07;;
12271;SDS011;6198;51.446;6.698;2023-06-22T02:58:04;19.20;;;16.30;;
12271;SDS011;6198;51.446;6.698;2023-06-22T03:00:31;19.13;;;16.47;;
12271;SDS011;6198;51.446;6.698;2023-06-22T03:02:57;19.53;;;16.10;;
12271;SDS011;6198;51.446;6.698;2023-06-22T03:05:23;18.73;;;16.60;;
12271;SDS011;6198;51.446;6.698;2023-06-22T03:07:49;21.13;;;16.73;;
12271;SDS011;6198;51.446;6.698;2023-06-22T03:10:16;19.53;;;16.93;;
12271;SDS011;6198;51.446;6.698;2023-06-22T03:12:42;18.93;;;15.77;;
12271;SDS011;6198;51.446;6.698;2023-06-22T03:15:09;18.80;;;16.67;;
12271;SDS011;6198;51.446;6.698;2023-06-22T03:17:36;19.33;;;16.07;;
12271;SDS011;6198;51.446;6.698;2023-06-22T03:20:04;18.53;;;16.53;;
12271;SDS011;6198;51.446;6.698;2023-06-22T03:22:37;19.00;;;16.33;;
12271;SDS011;6198;51.446;6.698;2023-06-22T03:25:04;21.83;;;17.23;;
12271;SDS011;6198;51.446;6.698;2023-06-22T03:27:36;19.47;;;17.33;;
12271;SDS011;6198;51.446;6.698;2023-06-22T03:30:02;21.13;;;17.43;;
12271;SDS011;6198;51.446;6.698;2023-06-22T03:32:28;18.87;;;16.93;;
12271;SDS011;6198;51.446;6.698;2023-06-22T03:34:54;20.20;;;18.13;;
12271;SDS011;6198;51.446;6.698;2023-06-22T03:37:23;22.07;;;18.47;;
12271;SDS011;6198;51.446;6.698;2023-06-22T03:39:49;19.70;;;17.23;;
12271;SDS011;6198;51.446;6.698;2023-06-22T03:42:15;19.80;;;17.60;;
12271;SDS011;6198;51.446;6.698;2023-06-22T03:44:41;20.20;;;18.00;;
12271;SDS011;6198;51.446;6.698;2023-06-22T03:47:07;19.17;;;17.17;;
12271;SDS011;6198;51.446;6.698;2023-06-22T03:49:34;20.77;;;18.63;;
12271;SDS011;6198;51.446;6.698;2023-06-22T03:52:00;19.67;;;17.67;;
12271;SDS011;6198;51.446;6.698;2023-06-22T03:54:29;19.60;;;17.47;;
12271;SDS011;6198;51.446;6.698;2023-06-22T03:56:58;19.70;;;17.80;;
12271;SDS011;6198;51.446;6.698;2023-06-22T03:59:24;19.63;;;17.77;;
12271;SDS011;6198;51.446;6.698;2023-06-22T04:01:50;19.83;;;17.87;;
12271;SDS011;6198;51.446;6.698;2023-06-22T04:04:20;21.60;;;18.83;;
12271;SDS011;6198;51.446;6.698;2023-06-22T04:06:46;20.63;;;17.83;;
12271;SDS011;6198;51.446;6.698;2023-06-22T04:09:12;21.00;;;18.90;;
12271;SDS011;6198;51.446;6.698;2023-06-22T04:11:38;21.23;;;18.13;;
12271;SDS011;6198;51.446;6.698;2023-06-22T04:14:05;22.27;;;19.13;;
12271;SDS011;6198;51.446;6.698;2023-06-22T04:16:31;22.83;;;18.40;;
12271;SDS011;6198;51.446;6.698;2023-06-22T04:18:56;20.33;;;18.23;;
12271;SDS011;6198;51.446;6.698;2023-06-22T04:21:22;19.93;;;17.93;;
12271;SDS011;6198;51.446;6.698;2023-06-22T04:23:48;19.87;;;17.87;;
12271;SDS011;6198;51.446;6.698;2023-06-22T04:26:14;20.93;;;18.83;;
12271;SDS011;6198;51.446;6.698;2023-06-22T04:28:40;22.95;;;20.50;;
12271;SDS011;6198;51.446;6.698;2023-06-22T04:31:06;21.77;;;19.67;;
12271;SDS011;6198;51.446;6.698;2023-06-22T04:33:32;22.83;;;20.33;;
12271;SDS011;6198;51.446;6.698;2023-06-22T04:35:58;22.60;;;20.20;;
12271;SDS011;6198;51.446;6.698;2023-06-22T04:38:28;22.33;;;20.10;;
12271;SDS011;6198;51.446;6.698;2023-06-22T04:40:58;23.20;;;20.90;;
12271;SDS011;6198;51.446;6.698;2023-06-22T04:43:26;21.90;;;19.70;;
12271;SDS011;6198;51.446;6.698;2023-06-22T04:45:55;22.33;;;20.02;;
12271;SDS011;6198;51.446;6.698;2023-06-22T04:48:21;22.97;;;19.03;;
12271;SDS011;6198;51.446;6.698;2023-06-22T04:50:47;21.53;;;19.10;;
12271;SDS011;6198;51.446;6.698;2023-06-22T04:53:13;22.80;;;19.33;;
12271;SDS011;6198;51.446;6.698;2023-06-22T04:55:39;21.53;;;19.33;;
12271;SDS011;6198;51.446;6.698;2023-06-22T04:58:10;23.23;;;20.85;;
12271;SDS011;6198;51.446;6.698;2023-06-22T05:00:37;23.25;;;20.95;;
12271;SDS011;6198;51.446;6.698;2023-06-22T05:03:03;23.17;;;20.88;;
12271;SDS011;6198;51.446;6.698;2023-06-22T05:05:31;22.90;;;20.50;;
12271;SDS011;6198;51.446;6.698;2023-06-22T05:07:57;22.63;;;20.42;;
12271;SDS011;6198;51.446;6.698;2023-06-22T05:10:26;22.50;;;20.17;;
12271;SDS011;6198;51.446;6.698;2023-06-22T05:12:52;22.88;;;20.58;;
12271;SDS011;6198;51.446;6.698;2023-06-22T05:15:18;22.27;;;19.98;;
12271;SDS011;6198;51.446;6.698;2023-06-22T05:17:44;22.27;;;19.85;;
12271;SDS011;6198;51.446;6.698;2023-06-22T05:20:11;22.23;;;19.55;;
12271;SDS011;6198;51.446;6.698;2023-06-22T05:22:37;24.92;;;19.27;;
12271;SDS011;6198;51.446;6.698;2023-06-22T05:25:04;20.95;;;18.80;;
12271;SDS011;6198;51.446;6.698;2023-06-22T05:27:31;21.25;;;18.63;;
12271;SDS011;6198;51.446;6.698;2023-06-22T05:29:57;22.00;;;19.75;;
12271;SDS011;6198;51.446;6.698;2023-06-22T05:32:23;20.67;;;18.00;;
12271;SDS011;6198;51.446;6.698;2023-06-22T05:34:49;20.63;;;18.43;;
12271;SDS011;6198;51.446;6.698;2023-06-22T05:37:14;22.48;;;18.42;;
12271;SDS011;6198;51.446;6.698;2023-06-22T05:39:40;21.48;;;17.83;;
12271;SDS011;6198;51.446;6.698;2023-06-22T05:42:07;21.08;;;17.98;;
12271;SDS011;6198;51.446;6.698;2023-06-22T05:44:33;25.05;;;18.52;;
12271;SDS011;6198;51.446;6.698;2023-06-22T05:46:59;21.23;;;17.95;;
12271;SDS011;6198;51.446;6.698;2023-06-22T05:49:25;20.35;;;18.38;;
12271;SDS011;6198;51.446;6.698;2023-06-22T05:51:57;19.60;;;17.60;;
12271;SDS011;6198;51.446;6.698;2023-06-22T05:54:23;20.38;;;18.45;;
12271;SDS011;6198;51.446;6.698;2023-06-22T05:56:49;21.95;;;18.25;;
12271;SDS011;6198;51.446;6.698;2023-06-22T05:59:15;41.67;;;20.23;;
12271;SDS011;6198;51.446;6.698;2023-06-22T06:01:41;21.43;;;18.97;;
12271;SDS011;6198;51.446;6.698;2023-06-22T06:04:07;20.27;;;18.17;;
12271;SDS011;6198;51.446;6.698;2023-06-22T06:06:33;20.90;;;18.63;;
12271;SDS011;6198;51.446;6.698;2023-06-22T06:09:02;22.55;;;19.42;;
12271;SDS011;6198;51.446;6.698;2023-06-22T06:11:28;30.60;;;19.83;;
12271;SDS011;6198;51.446;6.698;2023-06-22T06:13:54;22.13;;;19.40;;
12271;SDS011;6198;51.446;6.698;2023-06-22T06:16:20;22.20;;;19.23;;
12271;SDS011;6198;51.446;6.698;2023-06-22T06:18:46;20.60;;;18.38;;
12271;SDS011;6198;51.446;6.698;2023-06-22T06:21:13;24.27;;;18.27;;
12271;SDS011;6198;51.446;6.698;2023-06-22T06:23:39;23.80;;;18.27;;
12271;SDS011;6198;51.446;6.698;2023-06-22T06:26:05;23.27;;;18.25;;
12271;SDS011;6198;51.446;6.698;2023-06-22T06:28:32;20.67;;;17.77;;
12271;SDS011;6198;51.446;6.698;2023-06-22T06:30:58;23.10;;;18.92;;
12271;SDS011;6198;51.446;6.698;2023-06-22T06:33:24;21.33;;;18.27;;
12271;SDS011;6198;51.446;6.698;2023-06-22T06:35:50;21.70;;;18.10;;
12271;SDS011;6198;51.446;6.698;2023-06-22T06:38:16;21.88;;;18.25;;
12271;SDS011;6198;51.446;6.698;2023-06-22T06:40:42;20.25;;;18.13;;
12271;SDS011;6198;51.446;6.698;2023-06-22T06:43:10;18.83;;;16.20;;
12271;SDS011;6198;51.446;6.698;2023-06-22T06:45:35;22.90;;;15.67;;
12271;SDS011;6198;51.446;6.698;2023-06-22T06:48:01;19.60;;;16.60;;
12271;SDS011;6198;51.446;6.698;2023-06-22T06:50:28;21.17;;;16.77;;
12271;SDS011;6198;51.446;6.698;2023-06-22T06:52:54;17.77;;;16.07;;
12271;SDS011;6198;51.446;6.698;2023-06-22T06:55:21;20.70;;;18.52;;
12271;SDS011;6198;51.446;6.698;2023-06-22T06:57:50;18.60;;;16.70;;
12271;SDS011;6198;51.446;6.698;2023-06-22T07:00:17;20.23;;;16.10;;
12271;SDS011;6198;51.446;6.698;2023-06-22T07:02:44;22.40;;;16.70;;
12271;SDS011;6198;51.446;6.698;2023-06-22T07:05:11;21.97;;;16.00;;
12271;SDS011;6198;51.446;6.698;2023-06-22T07:07:37;18.87;;;16.97;;
12271;SDS011;6198;51.446;6.698;2023-06-22T07:10:04;21.10;;;18.83;;
12271;SDS011;6198;51.446;6.698;2023-06-22T07:12:30;21.13;;;18.92;;
12271;SDS011;6198;51.446;6.698;2023-06-22T07:15:06;20.07;;;17.97;;
12271;SDS011;6198;51.446;6.698;2023-06-22T07:17:37;22.13;;;18.30;;
12271;SDS011;6198;51.446;6.698;2023-06-22T07:20:05;21.33;;;19.13;;
12271;SDS011;6198;51.446;6.698;2023-06-22T07:22:34;22.67;;;18.20;;
12271;SDS011;6198;51.446;6.698;2023-06-22T07:25:00;21.30;;;17.93;;
12271;SDS011;6198;51.446;6.698;2023-06-22T07:27:29;21.57;;;17.00;;
12271;SDS011;6198;51.446;6.698;2023-06-22T07:30:01;19.20;;;16.77;;
12271;SDS011;6198;51.446;6.698;2023-06-22T07:32:26;18.47;;;16.63;;
12271;SDS011;6198;51.446;6.698;2023-06-22T07:34:53;22.03;;;17.80;;
12271;SDS011;6198;51.446;6.698;2023-06-22T07:37:19;18.03;;;16.13;;
12271;SDS011;6198;51.446;6.698;2023-06-22T07:39:45;18.77;;;16.93;;
12271;SDS011;6198;51.446;6.698;2023-06-22T07:42:11;26.20;;;17.13;;
12271;SDS011;6198;51.446;6.698;2023-06-22T07:44:37;20.60;;;17.60;;
12271;SDS011;6198;51.446;6.698;2023-06-22T07:47:03;21.23;;;17.90;;
12271;SDS011;6198;51.446;6.698;2023-06-22T07:49:29;21.77;;;17.87;;
12271;SDS011;6198;51.446;6.698;2023-06-22T07:51:55;22.87;;;18.87;;
12271;SDS011;6198;51.446;6.698;2023-06-22T07:54:21;22.87;;;20.10;;
12271;SDS011;6198;51.446;6.698;2023-06-22T07:56:47;21.37;;;19.07;;
12271;SDS011;6198;51.446;6.698;2023-06-22T07:59:13;21.63;;;19.47;;
12271;SDS011;6198;51.446;6.698;2023-06-22T08:01:39;24.37;;;19.23;;
12271;SDS011;6198;51.446;6.698;2023-06-22T08:04:05;21.77;;;18.90;;
12271;SDS011;6198;51.446;6.698;2023-06-22T08:06:31;26.70;;;21.17;;
12271;SDS011;6198;51.446;6.698;2023-06-22T08:08:57;22.50;;;20.17;;
12271;SDS011;6198;51.446;6.698;2023-06-22T08:11:24;21.73;;;19.43;;
12271;SDS011;6198;51.446;6.698;2023-06-22T08:13:50;29.43;;;20.53;;
12271;SDS011;6198;51.446;6.698;2023-06-22T08:16:16;23.47;;;20.70;;
12271;SDS011;6198;51.446;6.698;2023-06-22T08:18:42;25.93;;;20.47;;
12271;SDS011;6198;51.446;6.698;2023-06-22T08:21:08;26.53;;;20.87;;
12271;SDS011;6198;51.446;6.698;2023-06-22T08:23:36;27.27;;;22.67;;
12271;SDS011;6198;51.446;6.698;2023-06-22T08:26:02;23.93;;;21.43;;
12271;SDS011;6198;51.446;6.698;2023-06-22T08:28:28;29.33;;;22.30;;
12271;SDS011;6198;51.446;6.698;2023-06-22T08:30:54;24.47;;;21.87;;
12271;SDS011;6198;51.446;6.698;2023-06-22T08:33:20;22.87;;;20.47;;
12271;SDS011;6198;51.446;6.698;2023-06-22T08:35:49;22.67;;;19.77;;
12271;SDS011;6198;51.446;6.698;2023-06-22T08:38:15;22.07;;;19.67;;
12271;SDS011;6198;51.446;6.698;2023-06-22T08:40:43;24.17;;;21.53;;
12271;SDS011;6198;51.446;6.698;2023-06-22T08:43:09;25.30;;;22.60;;
12271;SDS011;6198;51.446;6.698;2023-06-22T08:45:35;26.43;;;21.33;;
12271;SDS011;6198;51.446;6.698;2023-06-22T08:48:01;26.57;;;22.37;;
12271;SDS011;6198;51.446;6.698;2023-06-22T08:50:27;25.47;;;22.67;;
12271;SDS011;6198;51.446;6.698;2023-06-22T08:52:53;25.73;;;23.00;;
12271;SDS011;6198;51.446;6.698;2023-06-22T08:55:19;26.50;;;23.60;;
12271;SDS011;6198;51.446;6.698;2023-06-22T08:57:45;26.63;;;22.07;;
12271;SDS011;6198;51.446;6.698;2023-06-22T09:00:11;26.83;;;23.13;;
12271;SDS011;6198;51.446;6.698;2023-06-22T09:02:42;26.83;;;23.40;;
12271;SDS011;6198;51.446;6.698;2023-06-22T09:05:08;25.07;;;22.57;;
12271;SDS011;6198;51.446;6.698;2023-06-22T09:07:34;25.20;;;22.70;;
12271;SDS011;6198;51.446;6.698;2023-06-22T09:10:00;25.67;;;22.93;;
12271;SDS011;6198;51.446;6.698;2023-06-22T09:12:26;25.37;;;22.67;;
12271;SDS011;6198;51.446;6.698;2023-06-22T09:14:55;28.10;;;23.20;;
12271;SDS011;6198;51.446;6.698;2023-06-22T09:17:21;26.37;;;23.53;;
12271;SDS011;6198;51.446;6.698;2023-06-22T09:19:47;27.37;;;24.47;;
12271;SDS011;6198;51.446;6.698;2023-06-22T09:22:14;25.20;;;22.80;;
12271;SDS011;6198;51.446;6.698;2023-06-22T09:24:39;27.17;;;23.83;;
12271;SDS011;6198;51.446;6.698;2023-06-22T09:27:05;25.33;;;22.63;;
12271;SDS011;6198;51.446;6.698;2023-06-22T09:29:31;26.33;;;23.47;;
12271;SDS011;6198;51.446;6.698;2023-06-22T09:31:58;25.73;;;23.20;;
12271;SDS011;6198;51.446;6.698;2023-06-22T09:34:24;26.17;;;23.43;;
12271;SDS011;6198;51.446;6.698;2023-06-22T09:36:51;25.17;;;22.47;;
12271;SDS011;6198;51.446;6.698;2023-06-22T09:39:17;25.73;;;23.13;;
12271;SDS011;6198;51.446;6.698;2023-06-22T09:41:43;25.50;;;22.83;;
12271;SDS011;6198;51.446;6.698;2023-06-22T09:44:09;26.73;;;23.60;;
12271;SDS011;6198;51.446;6.698;2023-06-22T09:46:35;25.40;;;22.13;;
12271;SDS011;6198;51.446;6.698;2023-06-22T09:49:01;24.33;;;21.90;;
12271;SDS011;6198;51.446;6.698;2023-06-22T09:51:27;25.33;;;22.93;;
12271;SDS011;6198;51.446;6.698;2023-06-22T09:53:53;24.80;;;22.30;;
12271;SDS011;6198;51.446;6.698;2023-06-22T10:01:11;23.47;;;20.97;;
12271;SDS011;6198;51.446;6.698;2023-06-22T10:03:39;26.10;;;23.50;;
12271;SDS011;6198;51.446;6.698;2023-06-22T10:06:06;26.90;;;24.30;;
12271;SDS011;6198;51.446;6.698;2023-06-22T10:08:33;27.25;;;24.75;;
12271;SDS011;6198;51.446;6.698;2023-06-22T10:10:59;27.55;;;24.85;;
12271;SDS011;6198;51.446;6.698;2023-06-22T10:13:25;26.25;;;23.70;;
12271;SDS011;6198;51.446;6.698;2023-06-22T10:15:51;27.08;;;24.20;;
12271;SDS011;6198;51.446;6.698;2023-06-22T10:18:20;25.93;;;23.53;;
12271;SDS011;6198;51.446;6.698;2023-06-22T10:20:50;25.83;;;23.15;;
12271;SDS011;6198;51.446;6.698;2023-06-22T10:23:19;25.17;;;22.60;;
12271;SDS011;6198;51.446;6.698;2023-06-22T10:25:45;24.20;;;21.87;;
12271;SDS011;6198;51.446;6.698;2023-06-22T10:28:12;25.83;;;22.37;;
12271;SDS011;6198;51.446;6.698;2023-06-22T10:30:38;23.13;;;20.83;;
12271;SDS011;6198;51.446;6.698;2023-06-22T10:33:06;27.33;;;22.23;;
12271;SDS011;6198;51.446;6.698;2023-06-22T10:35:32;24.33;;;20.47;;
12271;SDS011;6198;51.446;6.698;2023-06-22T10:37:58;22.97;;;20.90;;
12271;SDS011;6198;51.446;6.698;2023-06-22T10:40:25;23.70;;;21.27;;
12271;SDS011;6198;51.446;6.698;2023-06-22T10:42:51;25.43;;;20.03;;
12271;SDS011;6198;51.446;6.698;2023-06-22T10:45:17;23.57;;;21.17;;
12271;SDS011;6198;51.446;6.698;2023-06-22T10:47:42;23.37;;;20.77;;
12271;SDS011;6198;51.446;6.698;2023-06-22T10:50:09;23.23;;;20.83;;
12271;SDS011;6198;51.446;6.698;2023-06-22T10:52:35;23.17;;;21.00;;
12271;SDS011;6198;51.446;6.698;2023-06-22T10:55:01;21.50;;;19.17;;
12271;SDS011;6198;51.446;6.698;2023-06-22T10:57:27;25.10;;;21.70;;
12271;SDS011;6198;51.446;6.698;2023-06-22T10:59:53;22.67;;;19.63;;
12271;SDS011;6198;51.446;6.698;2023-06-22T11:02:18;26.83;;;21.13;;
12271;SDS011;6198;51.446;6.698;2023-06-22T11:04:44;21.93;;;19.80;;
12271;SDS011;6198;51.446;6.698;2023-06-22T11:07:11;24.07;;;20.47;;
12271;SDS011;6198;51.446;6.698;2023-06-22T11:09:37;22.60;;;20.30;;
12271;SDS011;6198;51.446;6.698;2023-06-22T11:12:04;22.87;;;20.30;;
12271;SDS011;6198;51.446;6.698;2023-06-22T11:14:30;24.53;;;21.13;;
12271;SDS011;6198;51.446;6.698;2023-06-22T11:16:56;25.97;;;19.60;;
12271;SDS011;6198;51.446;6.698;2023-06-22T11:19:23;22.37;;;19.93;;
12271;SDS011;6198;51.446;6.698;2023-06-22T11:21:49;29.73;;;20.73;;
12271;SDS011;6198;51.446;6.698;2023-06-22T11:24:15;23.40;;;20.90;;
12271;SDS011;6198;51.446;6.698;2023-06-22T11:26:42;24.47;;;20.80;;
12271;SDS011;6198;51.446;6.698;2023-06-22T11:29:08;25.23;;;22.60;;
12271;SDS011;6198;51.446;6.698;2023-06-22T11:31:34;27.53;;;24.47;;
12271;SDS011;6198;51.446;6.698;2023-06-22T11:34:00;29.67;;;26.70;;
12271;SDS011;6198;51.446;6.698;2023-06-22T11:36:26;30.50;;;27.30;;
12271;SDS011;6198;51.446;6.698;2023-06-22T11:38:54;31.83;;;27.37;;
12271;SDS011;6198;51.446;6.698;2023-06-22T11:41:20;35.93;;;30.57;;
12271;SDS011;6198;51.446;6.698;2023-06-22T11:43:46;40.47;;;33.10;;
12271;SDS011;6198;51.446;6.698;2023-06-22T11:46:12;39.37;;;34.83;;
12271;SDS011;6198;51.446;6.698;2023-06-22T11:48:38;44.40;;;35.67;;
12271;SDS011;6198;51.446;6.698;2023-06-22T11:51:04;46.00;;;36.73;;
12271;SDS011;6198;51.446;6.698;2023-06-22T11:53:31;41.00;;;36.63;;
12271;SDS011;6198;51.446;6.698;2023-06-22T11:55:57;43.93;;;37.87;;
12271;SDS011;6198;51.446;6.698;2023-06-22T11:58:23;45.17;;;39.47;;
12271;SDS011;6198;51.446;6.698;2023-06-22T12:00:49;46.00;;;39.80;;
12271;SDS011;6198;51.446;6.698;2023-06-22T12:03:16;52.60;;;42.90;;
12271;SDS011;6198;51.446;6.698;2023-06-22T12:05:42;49.93;;;44.40;;
12271;SDS011;6198;51.446;6.698;2023-06-22T12:08:08;51.70;;;46.10;;
12271;SDS011;6198;51.446;6.698;2023-06-22T12:10:35;55.63;;;47.30;;
12271;SDS011;6198;51.446;6.698;2023-06-22T12:13:00;50.70;;;45.23;;
12271;SDS011;6198;51.446;6.698;2023-06-22T12:15:26;51.03;;;45.60;;
12271;SDS011;6198;51.446;6.698;2023-06-22T12:17:52;50.80;;;45.17;;
12271;SDS011;6198;51.446;6.698;2023-06-22T12:20:18;53.13;;;46.23;;
12271;SDS011;6198;51.446;6.698;2023-06-22T12:22:44;52.07;;;46.43;;
12271;SDS011;6198;51.446;6.698;2023-06-22T12:25:11;53.40;;;45.30;;
12271;SDS011;6198;51.446;6.698;2023-06-22T12:27:37;55.97;;;46.93;;
12271;SDS011;6198;51.446;6.698;2023-06-22T12:30:03;47.53;;;42.57;;
12271;SDS011;6198;51.446;6.698;2023-06-22T12:32:29;47.37;;;42.47;;
12271;SDS011;6198;51.446;6.698;2023-06-22T12:34:55;45.43;;;40.73;;
12271;SDS011;6198;51.446;6.698;2023-06-22T12:37:22;43.03;;;38.73;;
12271;SDS011;6198;51.446;6.698;2023-06-22T12:39:48;40.60;;;36.43;;
12271;SDS011;6198;51.446;6.698;2023-06-22T12:42:15;37.43;;;33.77;;
12271;SDS011;6198;51.446;6.698;2023-06-22T12:44:40;38.37;;;34.57;;
12271;SDS011;6198;51.446;6.698;2023-06-22T12:47:07;36.63;;;32.70;;
12271;SDS011;6198;51.446;6.698;2023-06-22T12:49:36;36.03;;;32.53;;
12271;SDS011;6198;51.446;6.698;2023-06-22T12:52:02;34.97;;;31.33;;
12271;SDS011;6198;51.446;6.698;2023-06-22T12:54:28;35.67;;;31.83;;
12271;SDS011;6198;51.446;6.698;2023-06-22T12:56:55;33.70;;;30.43;;
12271;SDS011;6198;51.446;6.698;2023-06-22T12:59:21;36.17;;;32.63;;
12271;SDS011;6198;51.446;6.698;2023-06-22T13:01:47;37.00;;;33.57;;
12271;SDS011;6198;51.446;6.698;2023-06-22T13:04:13;37.73;;;34.07;;
12271;SDS011;6198;51.446;6.698;2023-06-22T13:06:43;35.60;;;32.10;;
12271;SDS011;6198;51.446;6.698;2023-06-22T13:09:12;36.27;;;32.67;;
12271;SDS011;6198;51.446;6.698;2023-06-22T13:11:38;37.57;;;33.87;;
12271;SDS011;6198;51.446;6.698;2023-06-22T13:14:04;38.03;;;34.20;;
12271;SDS011;6198;51.446;6.698;2023-06-22T13:16:30;39.37;;;35.47;;
12271;SDS011;6198;51.446;6.698;2023-06-22T13:18:56;37.33;;;33.73;;
12271;SDS011;6198;51.446;6.698;2023-06-22T13:21:22;37.93;;;34.23;;
12271;SDS011;6198;51.446;6.698;2023-06-22T13:23:48;39.57;;;35.40;;
12271;SDS011;6198;51.446;6.698;2023-06-22T13:26:14;39.83;;;35.60;;
12271;SDS011;6198;51.446;6.698;2023-06-22T13:28:40;41.77;;;37.53;;
12271;SDS011;6198;51.446;6.698;2023-06-22T13:31:05;43.07;;;38.63;;
12271;SDS011;6198;51.446;6.698;2023-06-22T13:33:31;46.00;;;41.27;;
12271;SDS011;6198;51.446;6.698;2023-06-22T13:35:57;46.37;;;41.70;;
12271;SDS011;6198;51.446;6.698;2023-06-22T13:38:23;45.67;;;40.93;;
12271;SDS011;6198;51.446;6.698;2023-06-22T13:40:49;44.53;;;39.73;;
12271;SDS011;6198;51.446;6.698;2023-06-22T13:43:16;50.07;;;42.53;;
12271;SDS011;6198;51.446;6.698;2023-06-22T13:45:42;45.87;;;41.13;;
12271;SDS011;6198;51.446;6.698;2023-06-22T13:48:08;47.03;;;42.13;;
12271;SDS011;6198;51.446;6.698;2023-06-22T13:50:34;39.93;;;35.67;;
12271;SDS011;6198;51.446;6.698;2023-06-22T13:53:00;40.00;;;35.77;;
12271;SDS011;6198;51.446;6.698;2023-06-22T13:55:26;37.53;;;33.60;;
12271;SDS011;6198;51.446;6.698;2023-06-22T13:57:52;40.60;;;36.20;;
12271;SDS011;6198;51.446;6.698;2023-06-22T14:00:18;37.40;;;33.87;;
12271;SDS011;6198;51.446;6.698;2023-06-22T14:02:44;35.97;;;32.47;;
12271;SDS011;6198;51.446;6.698;2023-06-22T14:05:10;36.13;;;32.50;;
12271;SDS011;6198;51.446;6.698;2023-06-22T14:07:37;38.30;;;34.57;;
12271;SDS011;6198;51.446;6.698;2023-06-22T14:10:03;36.67;;;33.07;;
12271;SDS011;6198;51.446;6.698;2023-06-22T14:12:29;33.40;;;30.03;;
12271;SDS011;6198;51.446;6.698;2023-06-22T14:14:55;35.13;;;31.57;;
12271;SDS011;6198;51.446;6.698;2023-06-22T14:17:22;37.17;;;33.40;;
12271;SDS011;6198;51.446;6.698;2023-06-22T14:19:50;34.27;;;30.83;;
12271;SDS011;6198;51.446;6.698;2023-06-22T14:22:20;35.00;;;31.53;;
12271;SDS011;6198;51.446;6.698;2023-06-22T14:24:47;33.10;;;29.80;;
12271;SDS011;6198;51.446;6.698;2023-06-22T14:27:13;36.10;;;31.70;;
12271;SDS011;6198;51.446;6.698;2023-06-22T14:29:39;35.07;;;31.57;;
12271;SDS011;6198;51.446;6.698;2023-06-22T14:32:05;34.90;;;31.50;;
12271;SDS011;6198;51.446;6.698;2023-06-22T14:34:31;35.23;;;31.73;;
12271;SDS011;6198;51.446;6.698;2023-06-22T14:36:57;35.13;;;31.67;;
12271;SDS011;6198;51.446;6.698;2023-06-22T14:39:23;35.20;;;31.97;;
12271;SDS011;6198;51.446;6.698;2023-06-22T14:41:49;34.10;;;30.57;;
12271;SDS011;6198;51.446;6.698;2023-06-22T14:44:15;33.00;;;29.70;;